createdAt,value
2023-12-12T00:00:00.606Z,99301.75
2023-12-12T00:00:51.526Z,99296.22
2023-12-12T00:01:43.222Z,99300.53
2023-12-12T00:02:33.995Z,99301.34
2023-12-12T00:03:24.746Z,99304.81
2023-12-12T00:04:16.247Z,99305.09
2023-12-12T00:05:07.661Z,99310.72
2023-12-12T00:05:58.845Z,99310.56
2023-12-12T00:06:49.553Z,99311.97
2023-12-12T00:07:40.945Z,99309.91
2023-12-12T00:08:32.076Z,99312.78
2023-12-12T00:09:22.852Z,99318.31
2023-12-12T00:10:13.806Z,99319.13
2023-12-12T00:11:06.903Z,99312.38
2023-12-12T00:11:57.723Z,99307.81
2023-12-12T00:12:50.968Z,99317.63
2023-12-12T00:13:44.480Z,99311.69
2023-12-12T00:14:34.910Z,99314.88
2023-12-12T00:15:25.804Z,99319.31
2023-12-12T00:16:16.971Z,99322.06
2023-12-12T00:17:07.860Z,99320.13
2023-12-12T00:17:58.694Z,99316.53
2023-12-12T00:18:49.854Z,99319.84
2023-12-12T00:19:43.128Z,99323.97
2023-12-12T00:20:34.121Z,99317.50
2023-12-12T00:21:24.994Z,99322.19
2023-12-12T00:22:16.006Z,99317.91
2023-12-12T00:23:07.142Z,99314.72
2023-12-12T00:23:57.703Z,99315.69
2023-12-12T00:24:48.525Z,99319.72
2023-12-12T00:25:39.301Z,99319.97
2023-12-12T00:26:30.756Z,99317.75
2023-12-12T00:27:21.514Z,99322.75
2023-12-12T00:28:12.454Z,99325.38
2023-12-12T00:29:03.605Z,99328.41
2023-12-12T00:29:54.268Z,99320.66
2023-12-12T00:30:45.069Z,99321.88
2023-12-12T00:31:35.913Z,99315.41
2023-12-12T00:32:27.194Z,99321.47
2023-12-12T00:33:18.666Z,99322.56
2023-12-12T00:34:09.495Z,99324.25
2023-12-12T00:35:00.451Z,99330.31
2023-12-12T00:35:51.378Z,99328.53
2023-12-12T00:36:42.366Z,99332.41
2023-12-12T00:37:33.331Z,99319.97
2023-12-12T00:38:29.545Z,99328.81
2023-12-12T00:39:20.451Z,99329.22
2023-12-12T00:40:12.217Z,99330.34
2023-12-12T00:41:03.501Z,99332.81
2023-12-12T00:41:54.047Z,99330.75
2023-12-12T00:42:44.743Z,99333.25
2023-12-12T00:43:35.766Z,99334.88
2023-12-12T00:44:26.601Z,99331.44
2023-12-12T00:45:17.594Z,99340.69
2023-12-12T00:46:08.261Z,99343.59
2023-12-12T00:46:59.233Z,99339.59
2023-12-12T00:47:50.931Z,99339.19
2023-12-12T00:48:42.174Z,99344.97
2023-12-12T00:49:33.274Z,99346.38
2023-12-12T00:50:24.260Z,99340.84
2023-12-12T00:51:15.279Z,99344.44
2023-12-12T00:52:06.400Z,99345.13
2023-12-12T00:52:57.301Z,99342.75
2023-12-12T00:53:48.261Z,99344.44
2023-12-12T00:54:39.127Z,99344.97
2023-12-12T00:55:30.048Z,99341.22
2023-12-12T00:56:20.904Z,99339.72
2023-12-12T00:57:11.824Z,99344.13
2023-12-12T00:58:02.942Z,99341.50
2023-12-12T00:58:53.819Z,99338.31
2023-12-12T00:59:44.807Z,99347.31
2023-12-12T01:00:35.773Z,99342.63
2023-12-12T01:01:26.783Z,99345.78
2023-12-12T01:02:17.372Z,99348.53
2023-12-12T01:03:08.554Z,99348.13
2023-12-12T01:03:59.835Z,99344.38
2023-12-12T01:04:51.164Z,99344.38
2023-12-12T01:05:42.155Z,99342.84
2023-12-12T01:06:33.120Z,99350.88
2023-12-12T01:07:24.040Z,99341.34
2023-12-12T01:08:14.736Z,99345.47
2023-12-12T01:09:05.529Z,99329.19
2023-12-12T01:09:56.628Z,99334.56
2023-12-12T01:10:47.338Z,99335.53
2023-12-12T01:11:38.123Z,99330.28
2023-12-12T01:12:29.959Z,99332.50
2023-12-12T01:13:20.949Z,99332.06
2023-12-12T01:14:13.313Z,99338.16
2023-12-12T01:15:04.998Z,99343.16
2023-12-12T01:15:55.938Z,99337.31
2023-12-12T01:16:46.877Z,99340.91
2023-12-12T01:17:37.628Z,99340.50
2023-12-12T01:18:28.543Z,99341.63
2023-12-12T01:19:19.542Z,99342.59
2023-12-12T01:20:11.671Z,99342.59
2023-12-12T01:21:03.771Z,99341.75
2023-12-12T01:21:54.810Z,99339.00
2023-12-12T01:22:45.997Z,99336.66
2023-12-12T01:23:54.001Z,99337.78
2023-12-12T01:24:45.119Z,99340.00
2023-12-12T01:25:36.159Z,99342.47
2023-12-12T01:26:26.907Z,99341.06
2023-12-12T01:27:17.805Z,99339.72
2023-12-12T01:28:08.917Z,99344.41
2023-12-12T01:28:59.816Z,99343.84
2023-12-12T01:29:50.640Z,99352.84
2023-12-12T01:30:41.458Z,99345.91
2023-12-12T01:31:32.875Z,99347.81
2023-12-12T01:32:24.041Z,99345.66
2023-12-12T01:33:14.797Z,99348.69
2023-12-12T01:34:05.772Z,99350.03
2023-12-12T01:34:56.734Z,99352.00
2023-12-12T01:35:47.587Z,99354.88
2023-12-12T01:36:38.290Z,99349.50
2023-12-12T01:37:29.196Z,99348.41
2023-12-12T01:38:20.555Z,99350.75
2023-12-12T01:39:11.427Z,99349.34
2023-12-12T01:40:02.211Z,99349.63
2023-12-12T01:40:54.255Z,99350.75
2023-12-12T01:41:48.501Z,99344.13
2023-12-12T01:42:39.287Z,99351.44
2023-12-12T01:43:32.421Z,99356.97
2023-12-12T01:44:23.131Z,99357.50
2023-12-12T01:45:15.440Z,99345.38
2023-12-12T01:46:10.237Z,99356.69
2023-12-12T01:47:01.447Z,99348.28
2023-12-12T01:47:52.504Z,99352.00
2023-12-12T01:48:43.459Z,99350.03
2023-12-12T01:49:34.490Z,99350.22
2023-12-12T01:50:25.125Z,99348.53
2023-12-12T01:51:17.060Z,99350.50
2023-12-12T01:52:09.156Z,99350.75
2023-12-12T01:52:59.636Z,99351.97
2023-12-12T01:53:52.369Z,99353.34
2023-12-12T01:54:47.236Z,99355.84
2023-12-12T01:55:38.411Z,99355.28
2023-12-12T01:56:30.828Z,99357.38
2023-12-12T01:57:24.188Z,99355.69
2023-12-12T01:58:15.871Z,99353.66
2023-12-12T01:59:08.042Z,99356.13
2023-12-12T01:59:59.166Z,99357.66
2023-12-12T02:00:50.617Z,99353.75
2023-12-12T02:01:41.594Z,99357.38
2023-12-12T02:02:32.775Z,99353.22
2023-12-12T02:03:26.080Z,99347.41
2023-12-12T02:04:18.245Z,99353.78
2023-12-12T02:05:09.679Z,99347.28
2023-12-12T02:06:03.217Z,99355.69
2023-12-12T02:06:57.813Z,99348.94
2023-12-12T02:07:52.339Z,99345.59
2023-12-12T02:08:46.236Z,99347.66
2023-12-12T02:09:39.933Z,99354.72
2023-12-12T02:10:31.556Z,99341.44
2023-12-12T02:11:22.870Z,99346.84
2023-12-12T02:12:14.011Z,99336.88
2023-12-12T02:13:06.101Z,99342.72
2023-12-12T02:13:57.255Z,99352.22
2023-12-12T02:14:48.170Z,99350.84
2023-12-12T02:15:39.066Z,99355.97
2023-12-12T02:16:30.203Z,99352.34
2023-12-12T02:17:21.285Z,99342.97
2023-12-12T02:18:13.023Z,99349.50
2023-12-12T02:19:03.886Z,99350.59
2023-12-12T02:19:54.705Z,99347.41
2023-12-12T02:20:45.351Z,99350.03
2023-12-12T02:21:36.338Z,99351.41
2023-12-12T02:22:27.472Z,99354.03
2023-12-12T02:23:18.197Z,99347.69
2023-12-12T02:24:09.295Z,99352.25
2023-12-12T02:25:00.528Z,99351.00
2023-12-12T02:25:53.712Z,99351.41
2023-12-12T02:26:44.345Z,99351.41
2023-12-12T02:27:36.282Z,99353.22
2023-12-12T02:28:27.419Z,99346.56
2023-12-12T02:29:18.106Z,99344.38
2023-12-12T02:30:09.889Z,99351.53
2023-12-12T02:31:01.586Z,99346.56
2023-12-12T02:31:52.410Z,99341.84
2023-12-12T02:32:43.512Z,99341.84
2023-12-12T02:33:34.446Z,99338.50
2023-12-12T02:34:25.381Z,99342.94
2023-12-12T02:35:16.167Z,99334.44
2023-12-12T02:36:07.400Z,99343.69
2023-12-12T02:36:57.986Z,99331.94
2023-12-12T02:37:48.793Z,99334.97
2023-12-12T02:38:39.766Z,99344.47
2023-12-12T02:39:30.781Z,99341.59
2023-12-12T02:40:21.668Z,99339.69
2023-12-12T02:41:12.432Z,99343.53
2023-12-12T02:42:03.392Z,99348.78
2023-12-12T02:42:54.359Z,99345.19
2023-12-12T02:43:45.285Z,99341.03
2023-12-12T02:44:36.138Z,99343.25
2023-12-12T02:45:27.058Z,99348.50
2023-12-12T02:46:18.280Z,99348.22
2023-12-12T02:47:09.213Z,99344.06
2023-12-12T02:48:01.366Z,99339.09
2023-12-12T02:48:52.537Z,99334.53
2023-12-12T02:49:43.509Z,99344.03
2023-12-12T02:50:34.164Z,99342.66
2023-12-12T02:51:25.098Z,99343.38
2023-12-12T02:52:16.644Z,99340.59
2023-12-12T02:53:07.405Z,99339.63
2023-12-12T02:53:58.255Z,99350.13
2023-12-12T02:54:49.071Z,99335.06
2023-12-12T02:55:40.105Z,99337.97
2023-12-12T02:56:36.344Z,99342.81
2023-12-12T02:57:26.974Z,99342.25
2023-12-12T02:58:17.956Z,99345.88
2023-12-12T02:59:08.806Z,99336.88
2023-12-12T02:59:59.624Z,99349.31
2023-12-12T03:00:50.705Z,99345.59
2023-12-12T03:01:41.562Z,99338.97
2023-12-12T03:02:34.118Z,99337.28
2023-12-12T03:03:24.893Z,99343.53
2023-12-12T03:04:16.205Z,99349.19
2023-12-12T03:05:09.768Z,99336.59
2023-12-12T03:06:00.734Z,99350.19
2023-12-12T03:06:51.763Z,99355.56
2023-12-12T03:07:42.657Z,99349.78
2023-12-12T03:08:33.419Z,99344.38
2023-12-12T03:09:24.221Z,99341.03
2023-12-12T03:10:15.361Z,99344.25
2023-12-12T03:11:06.470Z,99341.63
2023-12-12T03:11:57.986Z,99341.63
2023-12-12T03:12:48.940Z,99342.03
2023-12-12T03:13:40.089Z,99347.16
2023-12-12T03:14:31.033Z,99339.94
2023-12-12T03:15:21.928Z,99342.00
2023-12-12T03:16:13.030Z,99344.06
2023-12-12T03:17:03.996Z,99333.84
2023-12-12T03:17:54.824Z,99337.16
2023-12-12T03:18:45.718Z,99341.13
2023-12-12T03:19:36.764Z,99340.19
2023-12-12T03:20:27.962Z,99339.50
2023-12-12T03:21:18.719Z,99342.97
2023-12-12T03:22:09.640Z,99342.00
2023-12-12T03:23:00.683Z,99334.97
2023-12-12T03:23:51.482Z,99339.69
2023-12-12T03:24:42.290Z,99340.78
2023-12-12T03:25:33.260Z,99344.38
2023-12-12T03:26:24.031Z,99344.25
2023-12-12T03:27:15.047Z,99346.03
2023-12-12T03:28:05.816Z,99345.59
2023-12-12T03:28:56.748Z,99343.38
2023-12-12T03:29:47.810Z,99338.50
2023-12-12T03:30:38.730Z,99338.38
2023-12-12T03:31:29.609Z,99342.66
2023-12-12T03:32:20.527Z,99341.72
2023-12-12T03:33:11.575Z,99338.97
2023-12-12T03:34:02.606Z,99335.94
2023-12-12T03:34:53.459Z,99337.97
2023-12-12T03:35:44.051Z,99352.09
2023-12-12T03:36:35.944Z,99341.03
2023-12-12T03:37:27.150Z,99337.44
2023-12-12T03:38:17.778Z,99338.25
2023-12-12T03:39:08.784Z,99344.63
2023-12-12T03:39:59.696Z,99340.03
2023-12-12T03:40:50.385Z,99346.84
2023-12-12T03:41:41.271Z,99348.78
2023-12-12T03:42:32.231Z,99344.63
2023-12-12T03:43:25.629Z,99352.50
2023-12-12T03:44:16.736Z,99352.13
2023-12-12T03:45:08.290Z,99351.53
2023-12-12T03:45:59.239Z,99345.72
2023-12-12T03:46:49.938Z,99350.72
2023-12-12T03:47:40.706Z,99351.13
2023-12-12T03:48:31.827Z,99345.19
2023-12-12T03:49:22.782Z,99352.25
2023-12-12T03:50:14.263Z,99347.97
2023-12-12T03:51:05.520Z,99352.25
2023-12-12T03:51:56.375Z,99336.47
2023-12-12T03:52:47.342Z,99346.16
2023-12-12T03:53:38.241Z,99346.28
2023-12-12T03:54:34.323Z,99350.41
2023-12-12T03:55:25.430Z,99347.50
2023-12-12T03:56:16.222Z,99353.75
2023-12-12T03:57:07.148Z,99358.00
2023-12-12T03:57:57.986Z,99351.63
2023-12-12T03:58:48.898Z,99356.34
2023-12-12T03:59:40.799Z,99347.91
2023-12-12T04:00:31.680Z,99345.56
2023-12-12T04:01:23.385Z,99352.91
2023-12-12T04:02:14.407Z,99353.75
2023-12-12T04:03:05.459Z,99357.19
2023-12-12T04:03:56.661Z,99354.56
2023-12-12T04:04:47.293Z,99357.59
2023-12-12T04:05:38.438Z,99354.31
2023-12-12T04:06:29.395Z,99360.22
2023-12-12T04:07:20.267Z,99355.28
2023-12-12T04:08:10.847Z,99361.34
2023-12-12T04:09:01.670Z,99360.22
2023-12-12T04:09:52.647Z,99351.69
2023-12-12T04:10:43.443Z,99361.34
2023-12-12T04:11:34.233Z,99362.31
2023-12-12T04:12:25.043Z,99363.16
2023-12-12T04:13:15.895Z,99358.31
2023-12-12T04:14:06.859Z,99363.31
2023-12-12T04:14:57.710Z,99361.09
2023-12-12T04:15:48.538Z,99368.16
2023-12-12T04:16:40.322Z,99364.97
2023-12-12T04:17:31.969Z,99363.16
2023-12-12T04:18:22.968Z,99361.66
2023-12-12T04:19:13.929Z,99360.41
2023-12-12T04:20:06.416Z,99361.25
2023-12-12T04:20:57.181Z,99361.13
2023-12-12T04:21:48.218Z,99366.50
2023-12-12T04:22:39.239Z,99358.91
2023-12-12T04:23:30.179Z,99364.16
2023-12-12T04:24:20.839Z,99359.31
2023-12-12T04:25:13.002Z,99363.91
2023-12-12T04:26:04.271Z,99361.53
2023-12-12T04:26:57.452Z,99363.91
2023-12-12T04:27:50.103Z,99364.03
2023-12-12T04:28:40.703Z,99362.50
2023-12-12T04:29:31.703Z,99369.16
2023-12-12T04:30:22.608Z,99365.41
2023-12-12T04:31:18.113Z,99362.94
2023-12-12T04:32:09.156Z,99359.59
2023-12-12T04:32:59.932Z,99361.53
2023-12-12T04:33:51.011Z,99355.19
2023-12-12T04:34:41.914Z,99360.88
2023-12-12T04:35:32.702Z,99363.91
2023-12-12T04:36:23.645Z,99362.38
2023-12-12T04:37:14.728Z,99358.53
2023-12-12T04:38:05.709Z,99357.84
2023-12-12T04:38:56.480Z,99359.63
2023-12-12T04:39:47.465Z,99360.31
2023-12-12T04:40:40.782Z,99359.47
2023-12-12T04:41:31.840Z,99364.03
2023-12-12T04:42:24.391Z,99358.66
2023-12-12T04:43:15.309Z,99354.34
2023-12-12T04:44:06.380Z,99363.09
2023-12-12T04:44:57.420Z,99362.38
2023-12-12T04:45:48.926Z,99354.94
2023-12-12T04:46:42.455Z,99357.44
2023-12-12T04:47:34.069Z,99356.16
2023-12-12T04:48:25.266Z,99361.53
2023-12-12T04:49:16.364Z,99361.81
2023-12-12T04:50:07.967Z,99357.56
2023-12-12T04:50:59.308Z,99359.75
2023-12-12T04:51:52.556Z,99359.88
2023-12-12T04:52:43.466Z,99366.94
2023-12-12T04:53:34.553Z,99360.88
2023-12-12T04:54:25.388Z,99365.53
2023-12-12T04:55:16.390Z,99365.13
2023-12-12T04:56:07.564Z,99365.13
2023-12-12T04:56:58.845Z,99367.22
2023-12-12T04:57:49.921Z,99367.09
2023-12-12T04:58:40.681Z,99366.66
2023-12-12T04:59:31.606Z,99367.09
2023-12-12T05:00:22.759Z,99371.22
2023-12-12T05:01:17.551Z,99366.38
2023-12-12T05:02:08.850Z,99365.56
2023-12-12T05:02:59.776Z,99365.28
2023-12-12T05:03:50.675Z,99370.53
2023-12-12T05:04:41.596Z,99365.16
2023-12-12T05:05:32.637Z,99364.47
2023-12-12T05:06:23.613Z,99370.41
2023-12-12T05:07:16.824Z,99374.25
2023-12-12T05:08:07.938Z,99368.44
2023-12-12T05:08:58.969Z,99370.50
2023-12-12T05:09:49.886Z,99367.34
2023-12-12T05:10:40.869Z,99371.09
2023-12-12T05:11:32.004Z,99365.13
2023-12-12T05:12:23.113Z,99366.78
2023-12-12T05:13:14.046Z,99372.88
2023-12-12T05:14:07.191Z,99375.31
2023-12-12T05:14:58.209Z,99369.78
2023-12-12T05:15:49.238Z,99378.09
2023-12-12T05:16:40.216Z,99373.94
2023-12-12T05:17:31.223Z,99375.59
2023-12-12T05:18:23.043Z,99376.69
2023-12-12T05:19:13.989Z,99373.78
2023-12-12T05:20:06.055Z,99374.06
2023-12-12T05:20:56.948Z,99374.19
2023-12-12T05:21:47.869Z,99373.25
2023-12-12T05:22:38.925Z,99377.22
2023-12-12T05:23:29.698Z,99378.34
2023-12-12T05:24:20.535Z,99376.41
2023-12-12T05:25:12.613Z,99375.03
2023-12-12T05:26:03.493Z,99374.75
2023-12-12T05:26:54.440Z,99379.31
2023-12-12T05:27:45.538Z,99378.88
2023-12-12T05:28:36.465Z,99382.47
2023-12-12T05:29:27.384Z,99377.09
2023-12-12T05:30:18.848Z,99378.75
2023-12-12T05:31:10.014Z,99379.69
2023-12-12T05:32:00.839Z,99379.59
2023-12-12T05:32:51.665Z,99385.78
2023-12-12T05:33:42.799Z,99380.13
2023-12-12T05:34:33.699Z,99380.81
2023-12-12T05:35:24.597Z,99386.91
2023-12-12T05:36:15.400Z,99379.31
2023-12-12T05:37:09.344Z,99382.75
2023-12-12T05:38:00.408Z,99384.44
2023-12-12T05:38:52.498Z,99380.81
2023-12-12T05:39:43.402Z,99378.22
2023-12-12T05:40:34.771Z,99378.47
2023-12-12T05:41:25.997Z,99378.75
2023-12-12T05:42:16.951Z,99380.53
2023-12-12T05:43:07.956Z,99386.50
2023-12-12T05:44:01.640Z,99385.00
2023-12-12T05:44:52.300Z,99380.84
2023-12-12T05:45:43.137Z,99383.34
2023-12-12T05:46:34.703Z,99380.56
2023-12-12T05:47:26.213Z,99378.38
2023-12-12T05:48:17.607Z,99377.69
2023-12-12T05:49:10.722Z,99381.56
2023-12-12T05:50:01.783Z,99385.28
2023-12-12T05:50:52.601Z,99383.88
2023-12-12T05:51:44.466Z,99384.97
2023-12-12T05:52:34.951Z,99380.00
2023-12-12T05:53:27.682Z,99382.31
2023-12-12T05:54:19.075Z,99383.31
2023-12-12T05:55:10.378Z,99380.69
2023-12-12T05:56:01.321Z,99387.59
2023-12-12T05:56:52.269Z,99383.75
2023-12-12T05:57:43.175Z,99377.94
2023-12-12T05:58:34.003Z,99382.47
2023-12-12T05:59:24.913Z,99377.50
2023-12-12T06:00:16.349Z,99379.31
2023-12-12T06:01:07.391Z,99384.44
2023-12-12T06:01:58.491Z,99387.44
2023-12-12T06:02:49.565Z,99387.03
2023-12-12T06:03:42.368Z,99383.31
2023-12-12T06:04:36.923Z,99382.59
2023-12-12T06:05:28.424Z,99373.91
2023-12-12T06:06:21.943Z,99383.16
2023-12-12T06:07:14.410Z,99372.78
2023-12-12T06:08:05.394Z,99383.38
2023-12-12T06:08:56.307Z,99377.91
2023-12-12T06:09:47.257Z,99370.03
2023-12-12T06:10:38.928Z,99377.75
2023-12-12T06:11:30.173Z,99372.66
2023-12-12T06:12:21.107Z,99372.53
2023-12-12T06:13:11.927Z,99370.47
2023-12-12T06:14:04.420Z,99370.03
2023-12-12T06:14:55.864Z,99372.66
2023-12-12T06:15:46.661Z,99371.97
2023-12-12T06:16:39.074Z,99369.91
2023-12-12T06:17:30.509Z,99373.50
2023-12-12T06:18:21.797Z,99376.94
2023-12-12T06:19:12.632Z,99381.19
2023-12-12T06:20:55.123Z,99386.00
2023-12-12T06:21:47.694Z,99382.13
2023-12-12T06:22:38.551Z,99375.53
2023-12-12T06:23:30.349Z,99381.63
2023-12-12T06:24:22.117Z,99374.44
2023-12-12T06:25:12.838Z,99378.03
2023-12-12T06:26:05.003Z,99383.53
2023-12-12T06:26:56.317Z,99383.81
2023-12-12T06:27:46.891Z,99378.84
2023-12-12T06:28:37.842Z,99381.47
2023-12-12T06:29:28.743Z,99387.97
2023-12-12T06:30:19.700Z,99382.97
2023-12-12T06:31:10.545Z,99388.50
2023-12-12T06:32:01.804Z,99385.88
2023-12-12T06:32:52.720Z,99392.53
2023-12-12T06:33:43.448Z,99382.28
2023-12-12T06:34:34.307Z,99383.38
2023-12-12T06:35:25.360Z,99378.16
2023-12-12T06:36:16.500Z,99382.19
2023-12-12T06:37:07.284Z,99388.53
2023-12-12T06:37:58.168Z,99381.38
2023-12-12T06:38:48.984Z,99384.69
2023-12-12T06:39:39.712Z,99387.69
2023-12-12T06:40:31.405Z,99393.47
2023-12-12T06:41:22.464Z,99390.44
2023-12-12T06:42:13.385Z,99389.34
2023-12-12T06:43:04.291Z,99395.28
2023-12-12T06:43:55.182Z,99383.97
2023-12-12T06:44:46.032Z,99384.50
2023-12-12T06:45:38.258Z,99389.88
2023-12-12T06:46:28.895Z,99390.81
2023-12-12T06:47:19.756Z,99385.78
2023-12-12T06:48:12.962Z,99389.59
2023-12-12T06:49:08.104Z,99394.84
2023-12-12T06:49:59.203Z,99394.16
2023-12-12T06:50:50.285Z,99387.41
2023-12-12T06:51:41.203Z,99398.03
2023-12-12T06:52:35.710Z,99386.75
2023-12-12T06:53:26.864Z,99391.88
2023-12-12T06:54:17.844Z,99393.50
2023-12-12T06:55:09.094Z,99387.13
2023-12-12T06:56:00.044Z,99385.63
2023-12-12T06:56:50.923Z,99400.13
2023-12-12T06:57:41.682Z,99389.91
2023-12-12T06:58:32.674Z,99392.25
2023-12-12T06:59:23.978Z,99394.31
2023-12-12T07:00:15.610Z,99394.31
2023-12-12T07:01:06.835Z,99386.72
2023-12-12T07:02:00.372Z,99392.09
2023-12-12T07:02:51.523Z,99394.72
2023-12-12T07:03:42.370Z,99394.19
2023-12-12T07:04:33.800Z,99389.75
2023-12-12T07:05:24.940Z,99383.69
2023-12-12T07:06:20.090Z,99392.53
2023-12-12T07:07:13.048Z,99387.72
2023-12-12T07:08:05.951Z,99380.97
2023-12-12T07:08:56.696Z,99386.31
2023-12-12T07:09:58.858Z,99386.47
2023-12-12T07:10:51.891Z,99385.53
2023-12-12T07:11:45.179Z,99380.13
2023-12-12T07:12:35.723Z,99384.00
2023-12-12T07:13:26.612Z,99376.97
2023-12-12T07:14:17.593Z,99379.31
2023-12-12T07:15:08.652Z,99383.72
2023-12-12T07:15:59.519Z,99385.78
2023-12-12T07:16:50.461Z,99384.69
2023-12-12T07:17:41.808Z,99386.91
2023-12-12T07:18:34.016Z,99382.94
2023-12-12T07:19:25.426Z,99383.75
2023-12-12T07:20:16.222Z,99382.94
2023-12-12T07:21:07.631Z,99385.28
2023-12-12T07:21:58.746Z,99386.78
2023-12-12T07:22:50.069Z,99385.97
2023-12-12T07:23:40.798Z,99386.78
2023-12-12T07:24:31.519Z,99390.53
2023-12-12T07:25:22.621Z,99384.72
2023-12-12T07:26:17.112Z,99392.06
2023-12-12T07:27:08.199Z,99386.13
2023-12-12T07:27:59.618Z,99382.69
2023-12-12T07:28:51.005Z,99381.28
2023-12-12T07:29:41.715Z,99391.22
2023-12-12T07:30:33.431Z,99391.47
2023-12-12T07:31:24.570Z,99388.34
2023-12-12T07:32:15.386Z,99383.22
2023-12-12T07:33:06.403Z,99387.47
2023-12-12T07:33:57.427Z,99384.75
2023-12-12T07:34:48.327Z,99387.47
2023-12-12T07:35:39.141Z,99385.72
2023-12-12T07:36:29.981Z,99382.25
2023-12-12T07:37:21.012Z,99385.97
2023-12-12T07:38:11.958Z,99382.00
2023-12-12T07:39:03.571Z,99386.97
2023-12-12T07:39:54.230Z,99385.28
2023-12-12T07:40:45.545Z,99380.88
2023-12-12T07:41:36.564Z,99380.19
2023-12-12T07:42:30.793Z,99378.81
2023-12-12T07:43:23.477Z,99383.22
2023-12-12T07:44:14.449Z,99373.56
2023-12-12T07:45:05.902Z,99388.06
2023-12-12T07:45:56.691Z,99381.72
2023-12-12T07:46:47.558Z,99386.69
2023-12-12T07:47:42.949Z,99381.28
2023-12-12T07:48:35.004Z,99380.88
2023-12-12T07:49:28.294Z,99373.41
2023-12-12T07:50:19.690Z,99369.28
2023-12-12T07:51:11.877Z,99373.16
2023-12-12T07:52:02.837Z,99378.94
2023-12-12T07:52:53.815Z,99378.13
2023-12-12T07:53:44.504Z,99379.34
2023-12-12T07:54:35.418Z,99377.59
2023-12-12T07:55:26.464Z,99376.19
2023-12-12T07:56:17.212Z,99383.06
2023-12-12T07:57:08.145Z,99377.28
2023-12-12T07:57:59.126Z,99386.28
2023-12-12T07:58:50.076Z,99389.16
2023-12-12T07:59:43.309Z,99393.56
2023-12-12T08:00:34.213Z,99389.84
2023-12-12T08:01:25.352Z,99386.28
2023-12-12T08:02:16.059Z,99384.47
2023-12-12T08:03:06.808Z,99384.31
2023-12-12T08:03:57.832Z,99382.69
2023-12-12T08:04:48.931Z,99382.69
2023-12-12T08:05:40.042Z,99386.25
2023-12-12T08:06:31.158Z,99389.16
2023-12-12T08:07:24.002Z,99390.81
2023-12-12T08:08:15.614Z,99386.53
2023-12-12T08:09:06.231Z,99390.00
2023-12-12T08:09:57.198Z,99390.16
2023-12-12T08:10:48.482Z,99390.28
2023-12-12T08:11:39.706Z,99389.16
2023-12-12T08:12:30.490Z,99388.34
2023-12-12T08:13:21.504Z,99391.09
2023-12-12T08:14:12.926Z,99398.84
2023-12-12T08:15:04.909Z,99392.50
2023-12-12T08:15:55.796Z,99398.84
2023-12-12T08:16:46.852Z,99399.09
2023-12-12T08:17:37.860Z,99399.78
2023-12-12T08:18:28.740Z,99404.63
2023-12-12T08:19:19.922Z,99397.16
2023-12-12T08:20:11.695Z,99393.44
2023-12-12T08:21:02.633Z,99402.69
2023-12-12T08:21:53.491Z,99401.31
2023-12-12T08:22:44.623Z,99405.88
2023-12-12T08:23:38.268Z,99410.03
2023-12-12T08:24:29.053Z,99404.63
2023-12-12T08:25:22.815Z,99397.16
2023-12-12T08:26:13.938Z,99401.88
2023-12-12T08:27:05.151Z,99401.59
2023-12-12T08:27:55.927Z,99400.59
2023-12-12T08:28:46.754Z,99395.38
2023-12-12T08:29:37.617Z,99397.16
2023-12-12T08:30:28.502Z,99395.38
2023-12-12T08:31:19.534Z,99395.50
2023-12-12T08:32:10.413Z,99394.66
2023-12-12T08:33:01.339Z,99395.34
2023-12-12T08:33:52.157Z,99398.81
2023-12-12T08:34:42.888Z,99398.94
2023-12-12T08:35:33.691Z,99393.13
2023-12-12T08:36:24.553Z,99389.69
2023-12-12T08:37:17.726Z,99386.25
2023-12-12T08:38:08.549Z,99389.16
2023-12-12T08:39:02.388Z,99379.88
2023-12-12T08:39:53.336Z,99385.66
2023-12-12T08:40:44.532Z,99385.81
2023-12-12T08:41:38.725Z,99383.03
2023-12-12T08:42:29.796Z,99381.81
2023-12-12T08:43:20.554Z,99375.28
2023-12-12T08:44:11.518Z,99373.06
2023-12-12T08:45:03.486Z,99379.00
2023-12-12T08:45:55.914Z,99371.94
2023-12-12T08:46:47.076Z,99375.94
2023-12-12T08:47:38.636Z,99372.91
2023-12-12T08:48:30.298Z,99379.56
2023-12-12T08:49:21.266Z,99373.50
2023-12-12T08:50:12.497Z,99373.06
2023-12-12T08:51:03.576Z,99376.13
2023-12-12T08:51:54.386Z,99373.09
2023-12-12T08:52:46.507Z,99373.50
2023-12-12T08:53:38.000Z,99374.44
2023-12-12T08:54:28.524Z,99371.28
2023-12-12T08:55:19.651Z,99370.03
2023-12-12T08:56:15.813Z,99366.97
2023-12-12T08:57:07.205Z,99369.06
2023-12-12T08:57:58.219Z,99375.28
2023-12-12T08:58:50.464Z,99373.50
2023-12-12T08:59:41.590Z,99363.41
2023-12-12T09:00:32.708Z,99376.25
2023-12-12T09:01:23.858Z,99375.41
2023-12-12T09:02:14.896Z,99363.94
2023-12-12T09:03:05.767Z,99365.44
2023-12-12T09:03:57.636Z,99360.28
2023-12-12T09:04:48.782Z,99361.69
2023-12-12T09:05:40.053Z,99360.28
2023-12-12T09:06:30.648Z,99355.19
2023-12-12T09:07:21.634Z,99365.72
2023-12-12T09:08:12.421Z,99361.28
2023-12-12T09:09:03.714Z,99362.91
2023-12-12T09:09:54.540Z,99356.41
2023-12-12T09:10:45.562Z,99366.94
2023-12-12T09:11:37.110Z,99353.63
2023-12-12T09:12:28.066Z,99354.63
2023-12-12T09:13:18.972Z,99359.44
2023-12-12T09:14:09.674Z,99361.25
2023-12-12T09:15:00.832Z,99353.50
2023-12-12T09:15:51.528Z,99360.41
2023-12-12T09:16:42.525Z,99358.19
2023-12-12T09:17:33.426Z,99353.63
2023-12-12T09:18:24.748Z,99356.94
2023-12-12T09:19:17.953Z,99358.19
2023-12-12T09:20:09.674Z,99355.31
2023-12-12T09:21:04.381Z,99364.13
2023-12-12T09:21:55.742Z,99353.50
2023-12-12T09:22:46.709Z,99357.94
2023-12-12T09:23:40.909Z,99361.50
2023-12-12T09:24:31.597Z,99360.56
2023-12-12T09:25:22.467Z,99347.72
2023-12-12T09:26:14.792Z,99351.28
2023-12-12T09:27:06.131Z,99353.78
2023-12-12T09:27:56.910Z,99355.44
2023-12-12T09:28:48.505Z,99351.72
2023-12-12T09:29:39.682Z,99358.34
2023-12-12T09:30:30.717Z,99352.00
2023-12-12T09:31:27.418Z,99344.81
2023-12-12T09:32:18.616Z,99342.72
2023-12-12T09:33:09.604Z,99342.59
2023-12-12T09:34:00.606Z,99349.78
2023-12-12T09:34:51.412Z,99344.00
2023-12-12T09:35:42.368Z,99342.19
2023-12-12T09:36:33.408Z,99341.59
2023-12-12T09:37:24.887Z,99346.44
2023-12-12T09:38:15.977Z,99343.38
2023-12-12T09:39:08.478Z,99344.06
2023-12-12T09:40:02.150Z,99340.59
2023-12-12T09:40:53.386Z,99346.00
2023-12-12T09:41:51.013Z,99345.44
2023-12-12T09:42:41.733Z,99353.63
2023-12-12T09:43:36.783Z,99343.28
2023-12-12T09:44:31.580Z,99344.50
2023-12-12T09:45:24.131Z,99342.56
2023-12-12T09:46:16.114Z,99347.41
2023-12-12T09:47:08.467Z,99345.63
2023-12-12T09:48:00.019Z,99347.41
2023-12-12T09:48:51.125Z,99348.16
2023-12-12T09:49:43.132Z,99341.22
2023-12-12T09:50:36.164Z,99345.25
2023-12-12T09:51:27.111Z,99341.50
2023-12-12T09:52:18.797Z,99347.44
2023-12-12T09:53:10.809Z,99346.88
2023-12-12T09:54:07.560Z,99342.00
2023-12-12T09:55:00.096Z,99339.84
2023-12-12T09:55:52.864Z,99338.97
2023-12-12T09:56:44.932Z,99339.66
2023-12-12T09:57:35.939Z,99334.41
2023-12-12T09:58:26.944Z,99333.72
2023-12-12T09:59:17.870Z,99332.09
2023-12-12T10:00:10.041Z,99323.91
2023-12-12T10:01:03.666Z,99330.97
2023-12-12T10:01:56.801Z,99324.59
2023-12-12T10:02:48.667Z,99324.16
2023-12-12T10:03:39.978Z,99322.91
2023-12-12T10:04:30.851Z,99319.03